Time;durP1;ratioP1;P1;durP2;ratioP2;P2;SDS_P1;SDS_P2;PMS_P1;PMS_P2;Temp;Humidity;BMP_temperature;BMP_pressure;BME280_temperature;BME280_humidity;BME280_pressure;Samples;Min_cycle;Max_cycle;Signal;HPM_P1;HPM_P2
2023/04/15 00:00:50;;;;;;;5.70;4.30;;;;;;;6.90;97.10;100627.34;4959694;28;20030;-69
2023/04/15 00:03:16;;;;;;;6.20;4.00;;;;;;;6.85;98.41;100624.59;4954552;28;20015;-69
2023/04/15 00:05:42;;;;;;;8.20;3.70;;;;;;;6.83;98.60;100626.22;4951443;28;20054;-69
2023/04/15 00:08:07;;;;;;;8.85;4.80;;;;;;;6.81;97.98;100622.69;4954780;28;20480;-69
2023/04/15 00:10:32;;;;;;;8.73;4.47;;;;;;;6.79;98.40;100624.31;4959509;28;20027;-69
2023/04/15 00:12:58;;;;;;;7.47;4.22;;;;;;;6.76;99.86;100619.03;4954985;28;20022;-69
2023/04/15 00:15:23;;;;;;;6.47;4.30;;;;;;;6.70;99.32;100617.94;4953800;28;20504;-68
2023/04/15 00:17:50;;;;;;;5.57;4.53;;;;;;;6.67;99.19;100619.50;4954546;28;20046;-69
2023/04/15 00:20:16;;;;;;;9.30;4.43;;;;;;;6.63;99.85;100617.59;4956635;28;20031;-68
2023/04/15 00:22:41;;;;;;;7.22;4.18;;;;;;;6.57;100.00;100618.19;4955478;28;20035;-68
2023/04/15 00:25:08;;;;;;;6.60;4.78;;;;;;;6.53;100.00;100616.31;4952000;28;20055;-69
2023/04/15 00:27:33;;;;;;;6.53;4.65;;;;;;;6.49;100.00;100615.28;4966755;28;20493;-69
2023/04/15 00:29:58;;;;;;;6.05;4.53;;;;;;;6.42;100.00;100608.97;4964987;28;20027;-69
2023/04/15 00:32:24;;;;;;;6.68;4.38;;;;;;;6.39;100.00;100613.97;4984017;28;20026;-69
2023/04/15 00:34:49;;;;;;;7.65;4.85;;;;;;;6.35;100.00;100612.09;4977516;28;20114;-69
2023/04/15 00:37:15;;;;;;;7.35;4.40;;;;;;;6.31;100.00;100616.22;4965969;28;20375;-69
2023/04/15 00:39:40;;;;;;;6.70;4.38;;;;;;;6.28;100.00;100617.78;4973787;28;20444;-69
2023/04/15 00:42:06;;;;;;;8.18;4.43;;;;;;;6.26;100.00;100611.66;4976273;28;20015;-69
2023/04/15 00:44:32;;;;;;;7.20;4.32;;;;;;;6.23;100.00;100612.41;4975859;28;20030;-68
2023/04/15 00:46:59;;;;;;;10.60;4.95;;;;;;;6.21;100.00;100619.16;4975298;28;20038;-68
2023/04/15 00:49:26;;;;;;;8.60;4.13;;;;;;;6.18;100.00;100617.34;4952419;28;20031;-69
2023/04/15 00:51:51;;;;;;;7.97;4.65;;;;;;;6.17;100.00;100615.56;4950369;28;20069;-68
2023/04/15 00:54:16;;;;;;;9.57;5.03;;;;;;;6.15;100.00;100617.22;4957612;28;20100;-68
2023/04/15 00:56:42;;;;;;;6.25;5.03;;;;;;;6.15;100.00;100619.78;4986830;28;20766;-68
2023/04/15 00:59:08;;;;;;;7.72;4.60;;;;;;;6.16;100.00;100615.50;4986555;28;20021;-68
2023/04/15 01:01:35;;;;;;;6.97;4.45;;;;;;;6.15;100.00;100617.22;4987796;28;20546;-68
2023/04/15 01:04:01;;;;;;;6.22;4.45;;;;;;;6.12;100.00;100606.75;4954655;28;20027;-68
2023/04/15 01:06:27;;;;;;;7.30;4.80;;;;;;;6.09;100.00;100609.19;4950701;28;20062;-68
2023/04/15 01:08:53;;;;;;;7.20;4.95;;;;;;;6.05;100.00;100607.25;4955544;28;20101;-68
2023/04/15 01:11:18;;;;;;;10.50;5.55;;;;;;;6.01;100.00;100612.25;4958880;28;20039;-68
2023/04/15 01:13:45;;;;;;;7.93;4.70;;;;;;;5.98;100.00;100612.13;4951370;28;20100;-68
2023/04/15 01:16:11;;;;;;;8.18;4.97;;;;;;;5.93;100.00;100608.44;4955767;28;20023;-68
2023/04/15 01:18:37;;;;;;;6.38;4.47;;;;;;;5.88;100.00;100612.50;4979888;28;20045;-68
2023/04/15 01:21:04;;;;;;;8.35;5.05;;;;;;;5.85;100.00;100617.47;4952487;28;20031;-68
2023/04/15 01:23:31;;;;;;;9.27;4.80;;;;;;;5.82;100.00;100613.06;4949234;28;20027;-68
2023/04/15 01:25:58;;;;;;;8.05;5.00;;;;;;;5.79;100.00;100615.50;4973215;28;20852;-68
2023/04/15 01:28:24;;;;;;;6.38;4.97;;;;;;;5.75;100.00;100614.47;4961965;28;20119;-68
2023/04/15 01:30:49;;;;;;;11.73;4.97;;;;;;;5.73;100.00;100605.81;4985966;28;20036;-69
2023/04/15 01:33:15;;;;;;;10.07;5.30;;;;;;;5.73;100.00;100615.19;4975087;28;20038;-68
2023/04/15 01:35:43;;;;;;;7.70;5.28;;;;;;;5.70;100.00;100613.34;4987145;28;20034;-68
2023/04/15 01:38:09;;;;;;;10.18;5.40;;;;;;;5.67;100.00;100615.78;4964108;28;20019;-68
2023/04/15 01:40:34;;;;;;;7.65;4.97;;;;;;;5.64;100.00;100613.97;4974381;28;20035;-68
2023/04/15 01:43:01;;;;;;;7.47;5.40;;;;;;;5.61;100.00;100607.78;4949290;28;20049;-68
2023/04/15 01:45:26;;;;;;;6.65;4.78;;;;;;;5.59;100.00;100612.84;4987626;28;20041;-68
2023/04/15 01:47:52;;;;;;;9.23;6.00;;;;;;;5.56;100.00;100609.25;4970449;28;20355;-68
2023/04/15 01:50:17;;;;;;;6.60;5.30;;;;;;;5.50;100.00;100610.72;4968388;28;20121;-68
2023/04/15 01:52:43;;;;;;;9.55;5.50;;;;;;;5.48;100.00;100608.88;4955464;28;20033;-68
2023/04/15 01:55:09;;;;;;;7.78;5.03;;;;;;;5.44;100.00;100612.97;4957160;28;20061;-68
2023/04/15 01:57:35;;;;;;;7.57;5.72;;;;;;;5.42;100.00;100609.44;4948956;28;20062;-69
2023/04/15 02:00:01;;;;;;;9.50;6.40;;;;;;;5.39;100.00;100607.63;4949613;28;20484;-68
2023/04/15 02:02:26;;;;;;;7.32;5.63;;;;;;;5.35;100.00;100605.69;4972191;28;20065;-68
2023/04/15 02:04:52;;;;;;;6.50;5.47;;;;;;;5.32;100.00;100607.22;4984832;28;20037;-68
2023/04/15 02:07:18;;;;;;;8.15;5.82;;;;;;;5.27;100.00;100610.44;4976868;28;20041;-68
2023/04/15 02:09:44;;;;;;;9.43;6.10;;;;;;;5.25;100.00;100606.91;4980536;28;20080;-68
2023/04/15 02:12:10;;;;;;;9.93;6.70;;;;;;;5.21;100.00;100610.16;4987416;28;20542;-68
2023/04/15 02:14:36;;;;;;;9.98;6.38;;;;;;;5.16;100.00;100609.03;4989178;28;20254;-68
2023/04/15 02:17:06;;;;;;;8.93;5.65;;;;;;;5.12;100.00;100604.53;4977510;28;20053;-68
2023/04/15 02:19:32;;;;;;;9.55;6.20;;;;;;;5.09;100.00;100614.66;4989955;28;20030;-68
2023/04/15 02:21:57;;;;;;;9.48;6.40;;;;;;;5.04;100.00;100617.88;4990719;28;20121;-69
2023/04/15 02:24:22;;;;;;;8.52;6.30;;;;;;;5.01;100.00;100615.16;4955682;28;20512;-68
2023/04/15 02:26:48;;;;;;;7.15;5.85;;;;;;;5.04;100.00;100623.00;4954713;28;20032;-68
2023/04/15 02:29:13;;;;;;;10.10;6.57;;;;;;;5.05;100.00;100618.75;4955584;28;20491;-68
2023/04/15 02:31:40;;;;;;;7.72;6.35;;;;;;;5.12;100.00;100625.09;4953609;28;20023;-68
2023/04/15 02:34:06;;;;;;;9.30;6.75;;;;;;;5.15;100.00;100635.50;4968334;28;20517;-68
2023/04/15 02:36:31;;;;;;;8.90;5.95;;;;;;;5.16;100.00;100637.28;4955068;28;20118;-68
2023/04/15 02:38:57;;;;;;;11.00;7.43;;;;;;;5.17;100.00;100646.75;4958910;28;20059;-68
2023/04/15 02:41:26;;;;;;;7.45;6.40;;;;;;;5.18;100.00;100639.94;4955453;28;20079;-68
2023/04/15 02:43:51;;;;;;;7.90;6.28;;;;;;;5.20;100.00;100643.47;4958419;28;20038;-68
2023/04/15 02:46:16;;;;;;;8.10;6.63;;;;;;;5.20;100.00;100640.91;4958098;28;20113;-68
2023/04/15 02:48:41;;;;;;;9.27;6.10;;;;;;;5.19;100.00;100644.25;4960351;28;20221;-68
2023/04/15 02:51:21;;;;;;;8.68;6.82;;;;;;;5.17;100.00;100644.19;4986961;28;20026;-68
2023/04/15 02:53:47;;;;;;;7.57;6.55;;;;;;;5.12;100.00;100651.66;4976371;28;20339;-68
2023/04/15 02:56:14;;;;;;;9.27;6.50;;;;;;;5.09;100.00;100648.06;4958772;28;20026;-68
2023/04/15 02:58:40;;;;;;;8.20;6.05;;;;;;;5.04;100.00;100648.69;4957516;28;20067;-68
2023/04/15 03:01:06;;;;;;;7.53;6.05;;;;;;;4.99;100.00;100650.16;4966166;28;20400;-68
2023/04/15 03:03:31;;;;;;;10.05;6.82;;;;;;;4.93;100.00;100647.25;4989799;28;20392;-68
2023/04/15 03:05:57;;;;;;;9.63;6.53;;;;;;;4.89;100.00;100643.63;4990690;28;20045;-68
2023/04/15 03:08:22;;;;;;;9.32;6.40;;;;;;;4.85;100.00;100646.88;4988361;28;20057;-68
2023/04/15 03:10:47;;;;;;;11.85;7.75;;;;;;;4.82;100.00;100645.81;4977143;28;20030;-68
2023/04/15 03:13:13;;;;;;;10.02;6.50;;;;;;;4.78;100.00;100645.66;4987552;28;20541;-68
2023/04/15 03:15:38;;;;;;;11.73;6.53;;;;;;;4.75;100.00;100639.50;4958778;28;20054;-68
2023/04/15 03:18:05;;;;;;;10.35;6.45;;;;;;;4.70;100.00;100646.94;4964371;28;20329;-68
2023/04/15 03:20:30;;;;;;;10.55;6.63;;;;;;;4.67;100.00;100644.19;4963263;28;20460;-68
2023/04/15 03:22:55;;;;;;;12.02;6.85;;;;;;;4.65;100.00;100649.25;4958503;28;20510;-68
2023/04/15 03:25:21;;;;;;;7.65;6.57;;;;;;;4.63;100.00;100655.09;4957467;28;20519;-68
2023/04/15 03:27:46;;;;;;;7.30;6.55;;;;;;;4.61;100.00;100659.25;4977499;28;20405;-68
2023/04/15 03:30:12;;;;;;;7.20;6.47;;;;;;;4.57;100.00;100661.69;4988741;28;20057;-68
2023/04/15 03:32:37;;;;;;;9.77;6.72;;;;;;;4.54;100.00;100663.19;4989737;28;20113;-68
2023/04/15 03:35:03;;;;;;;9.87;6.87;;;;;;;4.53;100.00;100670.00;4988823;28;20026;-68
2023/04/15 03:37:28;;;;;;;8.43;7.30;;;;;;;4.50;100.00;100667.28;4989602;28;20014;-69
2023/04/15 03:39:53;;;;;;;9.48;7.68;;;;;;;4.48;100.00;100674.00;4987187;28;20109;-68
2023/04/15 03:42:19;;;;;;;8.00;7.00;;;;;;;4.43;100.00;100672.88;4988868;28;20026;-68
2023/04/15 03:44:44;;;;;;;8.13;7.32;;;;;;;4.40;100.00;100668.47;4973646;28;20030;-68
2023/04/15 03:47:10;;;;;;;7.78;6.97;;;;;;;4.37;100.00;100678.53;4978417;28;20399;-69
2023/04/15 03:49:36;;;;;;;8.75;7.90;;;;;;;4.34;100.00;100675.81;4977338;28;20035;-67
2023/04/15 03:52:01;;;;;;;8.37;7.57;;;;;;;4.33;100.00;100685.19;4951107;28;20398;-68
2023/04/15 03:54:26;;;;;;;8.43;7.57;;;;;;;4.35;100.00;100685.31;4950761;28;20023;-68
2023/04/15 03:56:52;;;;;;;8.83;6.90;;;;;;;4.37;100.00;100687.94;4951255;28;20031;-67
2023/04/15 03:59:17;;;;;;;10.20;7.67;;;;;;;4.37;100.00;100691.38;4963287;28;20024;-68
2023/04/15 04:01:42;;;;;;;9.27;7.80;;;;;;;4.38;100.00;100697.41;4973266;28;20474;-68
2023/04/15 04:04:08;;;;;;;10.05;7.72;;;;;;;4.39;100.00;100697.47;4989191;28;20080;-68
2023/04/15 04:06:33;;;;;;;8.53;7.47;;;;;;;4.38;100.00;100700.88;4989116;28;20080;-68
2023/04/15 04:08:58;;;;;;;7.80;6.72;;;;;;;4.38;100.00;100715.38;4988542;28;20647;-68
2023/04/15 04:11:23;;;;;;;11.80;7.90;;;;;;;4.36;100.00;100717.84;4988582;28;20022;-68
2023/04/15 04:13:49;;;;;;;8.05;7.35;;;;;;;4.37;100.00;100709.34;4988541;28;20129;-68
2023/04/15 04:16:14;;;;;;;9.05;8.20;;;;;;;4.37;100.00;100718.75;4984900;28;20039;-68
2023/04/15 04:18:40;;;;;;;8.73;7.83;;;;;;;4.39;100.00;100724.84;4981332;28;20069;-68
2023/04/15 04:21:05;;;;;;;10.33;8.50;;;;;;;4.42;100.00;100725.91;4975558;28;20022;-68
2023/04/15 04:23:31;;;;;;;8.38;7.57;;;;;;;4.45;100.00;100727.75;4988755;28;20124;-68
2023/04/15 04:25:56;;;;;;;11.07;8.00;;;;;;;4.48;100.00;100734.75;4988384;28;20026;-68
2023/04/15 04:28:22;;;;;;;9.48;8.23;;;;;;;4.49;100.00;100734.81;4988570;28;20491;-68
2023/04/15 04:30:47;;;;;;;9.32;7.93;;;;;;;4.52;100.00;100734.97;4988584;28;20030;-68
2023/04/15 04:33:12;;;;;;;10.90;8.82;;;;;;;4.55;100.00;100739.41;4988571;28;20030;-68
2023/04/15 04:35:38;;;;;;;9.57;8.10;;;;;;;4.56;100.00;100744.63;4974537;28;20038;-68
2023/04/15 04:38:03;;;;;;;8.50;7.53;;;;;;;4.58;100.00;100754.97;4962612;28;20039;-68
2023/04/15 04:40:29;;;;;;;10.07;7.47;;;;;;;4.60;100.00;100753.38;4948307;28;20027;-68
2023/04/15 04:42:55;;;;;;;11.32;8.35;;;;;;;4.60;100.00;100755.94;4973235;28;20037;-68
2023/04/15 04:45:20;;;;;;;9.38;7.90;;;;;;;4.58;100.00;100754.97;4984414;28;20378;-68
2023/04/15 04:47:46;;;;;;;9.48;8.23;;;;;;;4.60;100.00;100767.88;4973851;28;20068;-68
2023/04/15 04:50:12;;;;;;;8.55;7.65;;;;;;;4.60;100.00;100768.78;4966835;28;20423;-68
2023/04/15 04:52:37;;;;;;;10.68;7.97;;;;;;;4.60;100.00;100768.78;4962179;28;20085;-68
2023/04/15 04:55:03;;;;;;;10.38;8.27;;;;;;;4.59;100.00;100771.28;4960035;28;20093;-68
2023/04/15 04:57:28;;;;;;;9.55;7.35;;;;;;;4.58;100.00;100780.66;4985400;28;20382;-68
2023/04/15 04:59:53;;;;;;;8.85;7.97;;;;;;;4.59;100.00;100781.53;4967554;28;20039;-68
2023/04/15 05:02:19;;;;;;;9.32;8.48;;;;;;;4.59;100.00;100781.53;4956902;28;20475;-68
2023/04/15 05:04:44;;;;;;;9.50;8.33;;;;;;;4.60;100.00;100780.72;4987517;28;20030;-68
2023/04/15 05:07:10;;;;;;;9.50;8.60;;;;;;;4.60;100.00;100784.19;4971650;28;20076;-68
2023/04/15 05:09:35;;;;;;;11.80;8.27;;;;;;;4.62;100.00;100781.69;4985964;28;20422;-68
2023/04/15 05:12:02;;;;;;;9.02;8.13;;;;;;;4.63;100.00;100788.59;4983285;28;20041;-68
2023/04/15 05:14:28;;;;;;;11.65;8.25;;;;;;;4.66;100.00;100786.19;4984851;28;20450;-68
2023/04/15 05:16:53;;;;;;;9.13;8.23;;;;;;;4.67;100.00;100800.81;4976265;28;20035;-68
2023/04/15 05:19:18;;;;;;;10.63;9.52;;;;;;;4.69;100.00;100799.22;4965269;28;20019;-68
2023/04/15 05:21:43;;;;;;;11.52;9.13;;;;;;;4.71;100.00;100801.84;4952275;28;20038;-68
2023/04/15 05:24:09;;;;;;;9.57;8.60;;;;;;;4.73;100.00;100805.41;4971385;28;20025;-67
2023/04/15 05:26:34;;;;;;;10.68;8.82;;;;;;;4.75;100.00;100809.81;4968604;28;20097;-68
2023/04/15 05:29:00;;;;;;;10.18;8.80;;;;;;;4.80;100.00;100820.34;4966527;28;20027;-68
2023/04/15 05:31:25;;;;;;;9.82;8.65;;;;;;;4.82;100.00;100817.84;4964762;28;20487;-68
2023/04/15 05:33:50;;;;;;;9.13;8.23;;;;;;;4.86;100.00;100824.91;4971208;28;20487;-68
2023/04/15 05:36:16;;;;;;;9.80;8.77;;;;;;;4.89;100.00;100825.09;4966018;28;20450;-68
2023/04/15 05:38:41;;;;;;;12.35;8.88;;;;;;;4.91;100.00;100832.06;4971490;28;20085;-68
2023/04/15 05:41:07;;;;;;;10.30;9.20;;;;;;;4.94;100.00;100839.06;4965304;28;20023;-68
2023/04/15 05:43:32;;;;;;;10.13;8.32;;;;;;;4.96;100.00;100840.06;4970249;28;20053;-68
2023/04/15 05:45:57;;;;;;;10.15;9.15;;;;;;;4.97;100.00;100844.38;4959780;28;20023;-68
2023/04/15 05:48:23;;;;;;;9.90;8.27;;;;;;;4.98;100.00;100843.59;4971771;28;20459;-68
2023/04/15 05:50:48;;;;;;;10.65;8.52;;;;;;;4.98;100.00;100846.16;4956314;28;20060;-67
2023/04/15 05:53:13;;;;;;;10.07;9.07;;;;;;;5.01;100.00;100859.16;4956433;28;20031;-68
2023/04/15 05:55:39;;;;;;;10.25;9.23;;;;;;;5.02;100.00;100860.91;4952791;28;20027;-68
2023/04/15 05:58:04;;;;;;;11.38;8.82;;;;;;;5.02;100.00;100865.16;4966062;28;20031;-67
2023/04/15 06:00:30;;;;;;;12.43;9.27;;;;;;;5.04;100.00;100864.47;4968422;28;20503;-68
2023/04/15 06:02:56;;;;;;;11.95;8.65;;;;;;;5.10;100.00;100868.16;4965782;28;20026;-68
2023/04/15 06:05:22;;;;;;;8.85;7.95;;;;;;;5.14;100.00;100872.69;4964401;28;20459;-68
2023/04/15 06:07:49;;;;;;;11.57;9.32;;;;;;;5.18;100.00;100869.47;4968176;28;20478;-68
2023/04/15 06:10:14;;;;;;;11.10;8.75;;;;;;;5.26;100.00;100875.03;4964361;28;20431;-68
2023/04/15 06:12:39;;;;;;;12.38;8.82;;;;;;;5.33;100.00;100879.69;4968306;28;20030;-68
2023/04/15 06:15:05;;;;;;;10.23;8.85;;;;;;;5.41;100.00;100888.69;4965640;28;20095;-68
2023/04/15 06:17:31;;;;;;;10.70;9.30;;;;;;;5.51;100.00;100892.66;4955388;28;20027;-68
2023/04/15 06:19:56;;;;;;;10.30;8.82;;;;;;;5.61;100.00;100893.16;4965261;28;20084;-68
2023/04/15 06:22:22;;;;;;;12.90;9.75;;;;;;;5.72;100.00;100897.16;4970264;28;20647;-68
2023/04/15 06:24:49;;;;;;;9.63;8.45;;;;;;;5.84;100.00;100896.94;4970984;28;20302;-68
2023/04/15 06:27:15;;;;;;;11.45;9.15;;;;;;;6.02;100.00;100911.56;4971233;28;20026;-68
2023/04/15 06:29:41;;;;;;;9.73;8.68;;;;;;;6.21;100.00;100913.41;4966369;28;20043;-68
2023/04/15 06:32:06;;;;;;;13.63;10.45;;;;;;;6.41;100.00;100912.66;4956052;28;20085;-68
2023/04/15 06:34:31;;;;;;;9.57;8.55;;;;;;;6.61;100.00;100913.66;4950683;28;20035;-68
2023/04/15 06:36:57;;;;;;;9.48;8.57;;;;;;;6.81;100.00;100927.53;4959072;28;20113;-68
2023/04/15 06:39:22;;;;;;;9.90;8.90;;;;;;;7.01;100.00;100929.28;4954468;28;20094;-68
2023/04/15 06:41:47;;;;;;;10.13;8.13;;;;;;;7.19;100.00;100929.28;4966866;28;20026;-68
2023/04/15 06:44:13;;;;;;;10.55;9.45;;;;;;;7.39;100.00;100939.66;4964248;28;20476;-68
2023/04/15 06:46:38;;;;;;;9.50;8.45;;;;;;;7.60;100.00;100937.19;4963119;28;20045;-68
2023/04/15 06:49:04;;;;;;;8.85;8.02;;;;;;;7.83;100.00;100939.91;4956458;28;20310;-69
2023/04/15 06:51:30;;;;;;;9.63;8.63;;;;;;;8.02;100.00;100951.06;4955357;28;20105;-68
2023/04/15 06:53:56;;;;;;;9.63;8.73;;;;;;;8.21;100.00;100951.88;4956517;28;20035;-68
2023/04/15 06:56:22;;;;;;;10.13;9.20;;;;;;;8.36;100.00;100957.72;4960281;28;20543;-68
2023/04/15 06:58:47;;;;;;;9.43;8.30;;;;;;;8.59;100.00;100955.25;4963724;28;20078;-68
2023/04/15 07:01:13;;;;;;;9.80;8.90;;;;;;;8.84;100.00;100966.59;4979934;28;20022;-69
2023/04/15 07:03:38;;;;;;;9.20;8.40;;;;;;;9.06;100.00;100972.66;4960737;28;20480;-68
2023/04/15 07:06:05;;;;;;;10.27;8.75;;;;;;;9.20;100.00;100970.63;4978727;28;20037;-68
2023/04/15 07:08:31;;;;;;;9.38;8.45;;;;;;;9.43;100.00;100977.50;4952706;28;20035;-69
2023/04/15 07:10:56;;;;;;;9.18;8.27;;;;;;;9.58;99.86;100978.13;4964712;28;20029;-69
2023/04/15 07:13:22;;;;;;;9.95;8.15;;;;;;;9.70;99.61;100985.47;4970378;28;20031;-68
2023/04/15 07:15:47;;;;;;;9.75;8.85;;;;;;;9.85;98.57;100981.69;4974208;28;20053;-68
2023/04/15 07:18:12;;;;;;;9.68;8.68;;;;;;;9.91;96.40;100989.66;4948829;28;20331;-68
2023/04/15 07:20:38;;;;;;;9.57;8.68;;;;;;;10.02;97.56;100995.25;4962570;28;20027;-69
2023/04/15 07:23:04;;;;;;;9.77;8.93;;;;;;;10.26;99.62;100994.38;4974932;28;20022;-68
2023/04/15 07:25:29;;;;;;;11.40;9.38;;;;;;;10.66;98.56;100994.94;4968998;28;20051;-69
2023/04/15 07:27:55;;;;;;;9.68;8.77;;;;;;;10.90;95.16;100995.72;4973942;28;20144;-68
2023/04/15 07:30:20;;;;;;;9.13;8.23;;;;;;;11.21;93.64;101003.56;4968149;28;20476;-68
2023/04/15 07:32:45;;;;;;;9.18;8.20;;;;;;;11.47;91.79;101009.63;4950934;28;20093;-68
2023/04/15 07:35:11;;;;;;;9.07;8.15;;;;;;;11.68;88.46;101015.41;4960164;28;20042;-69
2023/04/15 07:37:36;;;;;;;8.40;7.60;;;;;;;11.74;86.94;101016.47;4972412;28;20487;-68
2023/04/15 07:40:05;;;;;;;8.05;7.35;;;;;;;12.01;86.08;101014.66;4967288;28;20027;-69
2023/04/15 07:42:32;;;;;;;8.88;7.95;;;;;;;12.37;85.86;101018.28;4954964;28;20519;-69
2023/04/15 07:44:57;;;;;;;9.13;7.82;;;;;;;12.46;81.23;101022.84;4971666;28;20035;-69
2023/04/15 07:47:23;;;;;;;8.52;7.65;;;;;;;12.64;81.27;101022.47;4974946;28;20030;-69
2023/04/15 07:49:50;;;;;;;7.25;6.65;;;;;;;12.77;80.86;101026.22;4957720;28;20027;-68
2023/04/15 07:52:15;;;;;;;7.72;6.90;;;;;;;12.91;79.60;101025.72;4982840;28;20025;-69
2023/04/15 07:54:40;;;;;;;7.85;7.15;;;;;;;13.03;78.10;101035.53;4988750;28;20120;-68
2023/04/15 07:57:06;;;;;;;7.55;6.85;;;;;;;13.06;77.39;101035.66;4987884;28;20548;-69
2023/04/15 07:59:32;;;;;;;7.38;6.50;;;;;;;13.12;77.46;101035.78;4989104;28;20026;-69
2023/04/15 08:01:58;;;;;;;7.30;6.60;;;;;;;13.20;76.80;101047.25;4989035;28;20030;-69
2023/04/15 08:04:23;;;;;;;8.07;6.80;;;;;;;13.19;74.36;101047.22;4989734;28;20459;-69
2023/04/15 08:06:49;;;;;;;7.72;6.93;;;;;;;13.39;75.98;101055.50;4987697;28;20478;-68
2023/04/15 08:09:15;;;;;;;7.78;6.97;;;;;;;13.44;74.50;101059.09;4988342;28;20023;-69
2023/04/15 08:11:40;;;;;;;7.68;6.78;;;;;;;13.48;73.84;101054.84;4987154;28;20080;-69
2023/04/15 08:14:05;;;;;;;7.45;6.57;;;;;;;13.51;74.25;101064.47;4988971;28;20134;-69
2023/04/15 08:16:31;;;;;;;6.05;5.47;;;;;;;13.56;72.72;101060.28;4981303;28;20460;-69
2023/04/15 08:18:56;;;;;;;6.63;6.03;;;;;;;13.77;74.00;101074.63;4969669;28;20033;-69
2023/04/15 08:21:22;;;;;;;7.03;6.32;;;;;;;13.59;71.03;101078.56;4951226;28;20031;-69
2023/04/15 08:23:49;;;;;;;6.18;5.68;;;;;;;13.48;70.43;101080.88;4951125;28;20027;-69
2023/04/15 08:26:14;;;;;;;6.90;6.30;;;;;;;13.12;70.86;101077.41;4950982;28;20051;-69
2023/04/15 08:28:41;;;;;;;6.40;5.75;;;;;;;13.32;73.02;101084.84;4963758;28;20058;-69
2023/04/15 08:31:07;;;;;;;6.38;5.72;;;;;;;13.50;71.27;101089.59;4950898;28;20031;-69
2023/04/15 08:33:32;;;;;;;7.15;5.55;;;;;;;13.72;71.32;101094.47;4950917;28;20313;-69
2023/04/15 08:35:58;;;;;;;4.30;3.90;;;;;;;13.77;66.78;101091.13;4950502;28;20039;-69
2023/04/15 08:38:23;;;;;;;4.40;3.45;;;;;;;14.02;66.93;101096.88;4951754;28;20019;-69
2023/04/15 08:40:48;;;;;;;4.38;3.33;;;;;;;14.29;65.24;101102.66;4951544;28;20055;-69
2023/04/15 08:43:21;;;;;;;4.10;3.70;;;;;;;14.50;64.06;101103.91;4953652;28;20037;-69
2023/04/15 08:45:50;;;;;;;4.15;3.85;;;;;;;14.72;64.22;101107.84;4961470;28;20078;-69
2023/04/15 08:48:16;;;;;;;6.55;3.83;;;;;;;14.85;62.11;101103.78;4962394;28;20027;-69
2023/04/15 08:50:42;;;;;;;5.05;4.25;;;;;;;14.73;61.96;101113.94;4950281;28;20121;-69
2023/04/15 08:53:09;;;;;;;6.03;4.25;;;;;;;14.69;63.10;101117.34;4950492;28;20027;-69
2023/04/15 08:55:38;;;;;;;3.95;3.60;;;;;;;14.71;63.91;101121.75;4976773;28;20026;-69
2023/04/15 08:58:04;;;;;;;4.53;4.10;;;;;;;14.78;62.56;101133.16;4977686;28;20028;-69
2023/04/15 09:00:32;;;;;;;4.78;4.18;;;;;;;14.74;61.52;101136.56;4987291;28;20030;-69
2023/04/15 09:02:58;;;;;;;4.15;3.75;;;;;;;14.76;62.41;101135.75;4988080;28;20034;-69
2023/04/15 09:05:23;;;;;;;5.00;4.10;;;;;;;14.78;60.88;101143.59;4987759;28;20031;-69
2023/04/15 09:07:51;;;;;;;5.75;4.18;;;;;;;14.70;60.82;101145.16;4979465;28;20073;-69
2023/04/15 09:10:17;;;;;;;5.25;4.13;;;;;;;14.67;61.61;101151.22;4984144;28;20022;-69
2023/04/15 09:12:43;;;;;;;6.43;3.97;;;;;;;14.73;62.24;101164.34;4978748;28;20085;-69
2023/04/15 09:15:11;;;;;;;5.32;3.63;;;;;;;14.67;61.18;101165.97;4984825;28;20054;-69
2023/04/15 09:17:41;;;;;;;4.18;3.78;;;;;;;14.60;60.32;101165.88;4968818;28;20095;-69
2023/04/15 09:20:11;;;;;;;4.47;4.07;;;;;;;14.63;62.17;101171.13;4949502;28;20541;-69
2023/04/15 09:22:37;;;;;;;5.40;3.83;;;;;;;14.71;60.69;101179.13;4976334;28;20143;-69
2023/04/15 09:25:03;;;;;;;4.90;3.72;;;;;;;14.60;60.66;101176.28;4950311;28;20481;-69
2023/04/15 09:27:29;;;;;;;3.53;3.22;;;;;;;14.59;61.87;101187.56;4956644;28;20063;-69
2023/04/15 09:29:55;;;;;;;4.20;3.80;;;;;;;14.45;63.48;101181.16;4958975;28;20027;-69
2023/04/15 09:32:22;;;;;;;4.70;4.00;;;;;;;14.33;62.99;101187.00;4952238;28;20031;-69
2023/04/15 09:34:47;;;;;;;4.03;3.30;;;;;;;14.02;60.13;101192.41;4950305;28;20081;-69
2023/04/15 09:37:14;;;;;;;3.65;3.35;;;;;;;13.97;62.94;101194.00;4952138;28;20416;-69
2023/04/15 09:39:49;;;;;;;6.78;4.38;;;;;;;13.97;63.05;101199.22;4950357;28;20102;-69
2023/04/15 09:42:16;;;;;;;4.55;4.18;;;;;;;14.12;64.14;101196.97;4950634;28;20460;-69
2023/04/15 09:44:42;;;;;;;3.95;3.55;;;;;;;14.31;66.35;101201.72;4950208;28;20114;-69
2023/04/15 09:47:07;;;;;;;4.25;3.85;;;;;;;14.31;64.15;101202.63;4961663;28;20535;-69
2023/04/15 09:49:33;;;;;;;3.70;3.40;;;;;;;14.49;65.77;101196.94;4980984;28;20054;-69
2023/04/15 09:52:01;;;;;;;3.92;3.55;;;;;;;14.63;62.16;101202.44;4980367;28;20049;-69
2023/04/15 09:54:37;;;;;;;3.92;3.60;;;;;;;14.85;63.15;101202.00;4986971;28;20502;-69
2023/04/15 09:57:07;;;;;;;3.75;3.40;;;;;;;15.04;63.80;101203.25;4985851;28;20208;-69
2023/04/15 09:59:32;;;;;;;4.65;3.45;;;;;;;15.12;61.93;101206.91;4987423;28;20023;-69
2023/04/15 10:01:58;;;;;;;4.72;3.50;;;;;;;15.02;62.05;101206.69;4985960;28;20076;-69
2023/04/15 10:04:26;;;;;;;2.80;2.60;;;;;;;15.09;62.50;101211.19;4987035;28;20037;-69
2023/04/15 10:06:52;;;;;;;4.13;3.20;;;;;;;14.95;63.22;101208.31;4986410;28;20041;-69
2023/04/15 10:09:18;;;;;;;4.80;3.72;;;;;;;14.96;63.58;101215.28;4987043;28;20029;-69
2023/04/15 10:11:44;;;;;;;4.72;3.45;;;;;;;14.95;62.64;101214.38;4985866;28;20372;-69
2023/04/15 10:14:12;;;;;;;3.42;3.13;;;;;;;15.05;62.27;101218.06;4986520;28;20042;-69
2023/04/15 10:16:41;;;;;;;3.58;2.97;;;;;;;14.86;60.57;101225.53;4970497;28;20571;-69
2023/04/15 10:19:08;;;;;;;3.05;2.47;;;;;;;14.79;60.12;101225.34;4978960;28;20026;-69
2023/04/15 10:21:36;;;;;;;2.92;2.70;;;;;;;14.83;61.73;101220.25;4987882;28;20101;-69
2023/04/15 10:24:02;;;;;;;3.50;3.20;;;;;;;14.81;62.59;101227.16;4986068;28;20038;-69
2023/04/15 10:26:28;;;;;;;6.05;2.88;;;;;;;14.85;62.80;101229.00;4986387;28;20054;-69
2023/04/15 10:28:53;;;;;;;3.00;2.80;;;;;;;14.95;62.64;101230.03;4986137;28;20050;-69
2023/04/15 10:31:19;;;;;;;3.35;2.83;;;;;;;15.08;64.51;101231.19;4990685;28;20026;-69
2023/04/15 10:33:46;;;;;;;3.85;3.28;;;;;;;15.12;62.42;101230.41;4985032;28;20077;-69
2023/04/15 10:36:12;;;;;;;2.80;2.50;;;;;;;15.30;62.71;101238.53;4981825;28;20037;-69
2023/04/15 10:38:40;;;;;;;3.00;2.70;;;;;;;15.42;59.85;101235.25;4989561;28;20528;-69
2023/04/15 10:41:13;;;;;;;3.67;2.78;;;;;;;15.53;61.62;101231.13;4991132;28;20099;-69
2023/04/15 10:43:38;;;;;;;3.50;3.20;;;;;;;15.56;61.68;101238.16;4989116;28;20487;-70
2023/04/15 10:46:05;;;;;;;3.15;2.85;;;;;;;15.54;60.71;101240.69;4987722;28;20059;-69
2023/04/15 10:48:30;;;;;;;3.08;2.78;;;;;;;15.48;61.17;101235.38;4979718;28;20038;-69
2023/04/15 10:50:56;;;;;;;3.53;2.35;;;;;;;15.44;60.57;101246.63;4986125;28;20029;-70
2023/04/15 10:53:28;;;;;;;2.72;2.42;;;;;;;15.54;62.85;101245.06;4971467;28;20042;-69
2023/04/15 10:55:53;;;;;;;2.80;2.00;;;;;;;15.49;59.13;101245.84;4955424;28;20019;-69
2023/04/15 10:58:23;;;;;;;2.78;1.90;;;;;;;15.55;63.56;101242.47;4952337;28;20387;-69
2023/04/15 11:00:53;;;;;;;3.35;2.08;;;;;;;15.62;59.79;101246.06;4952870;28;20019;-69
2023/04/15 11:03:39;;;;;;;2.20;1.67;;;;;;;15.66;59.57;101244.41;4964441;28;20483;-70
2023/04/15 11:06:05;;;;;;;2.83;1.55;;;;;;;15.70;58.91;101254.91;4962929;28;20117;-70
2023/04/15 11:08:58;;;;;;;2.85;2.10;;;;;;;15.55;57.56;101247.69;4952853;28;20054;-69
2023/04/15 11:12:03;;;;;;;2.33;2.13;;;;;;;15.49;56.48;101258.03;4952496;28;20069;-69
2023/04/15 11:14:29;;;;;;;2.65;2.22;;;;;;;15.48;57.50;101258.88;4963224;28;20047;-70
2023/04/15 11:16:54;;;;;;;3.47;2.63;;;;;;;15.38;57.77;101254.34;4962936;28;20023;-70
2023/04/15 11:19:19;;;;;;;3.38;2.05;;;;;;;15.52;60.44;101267.66;4979703;28;20047;-69